sensor_id;sensor_type;location;lat;lon;timestamp;P1;durP1;ratioP1;P2;durP2;ratioP2
434;SDS011;204;48.942;9.256;2022-07-09T00:01:26;6.20;;;3.93;;
434;SDS011;204;48.942;9.256;2022-07-09T00:03:52;5.53;;;5.13;;
434;SDS011;204;48.942;9.256;2022-07-09T00:06:18;5.50;;;4.30;;
434;SDS011;204;48.942;9.256;2022-07-09T00:08:43;9.77;;;4.93;;
434;SDS011;204;48.942;9.256;2022-07-09T00:11:09;6.53;;;4.47;;
434;SDS011;204;48.942;9.256;2022-07-09T00:13:35;5.40;;;4.17;;
434;SDS011;204;48.942;9.256;2022-07-09T00:16:00;4.37;;;3.50;;
434;SDS011;204;48.942;9.256;2022-07-09T00:18:26;6.40;;;4.07;;
434;SDS011;204;48.942;9.256;2022-07-09T00:20:53;4.57;;;4.00;;
434;SDS011;204;48.942;9.256;2022-07-09T00:23:20;5.28;;;4.45;;
434;SDS011;204;48.942;9.256;2022-07-09T00:25:45;4.97;;;3.73;;
434;SDS011;204;48.942;9.256;2022-07-09T00:28:11;5.63;;;4.93;;
434;SDS011;204;48.942;9.256;2022-07-09T00:30:36;5.10;;;4.80;;
434;SDS011;204;48.942;9.256;2022-07-09T00:33:02;8.37;;;4.77;;
434;SDS011;204;48.942;9.256;2022-07-09T00:35:28;5.00;;;4.70;;
434;SDS011;204;48.942;9.256;2022-07-09T00:37:54;4.23;;;3.87;;
434;SDS011;204;48.942;9.256;2022-07-09T00:40:19;6.13;;;4.00;;
434;SDS011;204;48.942;9.256;2022-07-09T00:42:45;4.57;;;4.27;;
434;SDS011;204;48.942;9.256;2022-07-09T00:45:11;7.20;;;4.37;;
434;SDS011;204;48.942;9.256;2022-07-09T00:47:36;5.37;;;3.50;;
434;SDS011;204;48.942;9.256;2022-07-09T00:50:02;6.87;;;4.73;;
434;SDS011;204;48.942;9.256;2022-07-09T00:52:29;4.65;;;3.80;;
434;SDS011;204;48.942;9.256;2022-07-09T00:54:56;6.13;;;4.03;;
434;SDS011;204;48.942;9.256;2022-07-09T00:57:24;4.70;;;4.40;;
434;SDS011;204;48.942;9.256;2022-07-09T00:59:50;5.20;;;3.93;;
434;SDS011;204;48.942;9.256;2022-07-09T01:02:17;5.18;;;4.10;;
434;SDS011;204;48.942;9.256;2022-07-09T01:04:45;6.35;;;4.25;;
434;SDS011;204;48.942;9.256;2022-07-09T01:07:10;5.00;;;4.40;;
434;SDS011;204;48.942;9.256;2022-07-09T01:09:36;6.03;;;4.70;;
434;SDS011;204;48.942;9.256;2022-07-09T01:12:03;5.55;;;4.18;;
434;SDS011;204;48.942;9.256;2022-07-09T01:14:29;5.05;;;4.20;;
434;SDS011;204;48.942;9.256;2022-07-09T01:16:58;15.13;;;4.40;;
434;SDS011;204;48.942;9.256;2022-07-09T01:19:29;4.65;;;4.10;;
434;SDS011;204;48.942;9.256;2022-07-09T01:21:55;5.20;;;4.85;;
434;SDS011;204;48.942;9.256;2022-07-09T01:24:21;6.20;;;4.70;;
434;SDS011;204;48.942;9.256;2022-07-09T01:26:48;5.85;;;4.57;;
434;SDS011;204;48.942;9.256;2022-07-09T01:29:14;4.25;;;3.80;;
434;SDS011;204;48.942;9.256;2022-07-09T01:31:39;5.63;;;3.77;;
434;SDS011;204;48.942;9.256;2022-07-09T01:34:05;6.20;;;4.40;;
434;SDS011;204;48.942;9.256;2022-07-09T01:36:31;4.70;;;4.40;;
434;SDS011;204;48.942;9.256;2022-07-09T01:38:57;3.90;;;3.70;;
434;SDS011;204;48.942;9.256;2022-07-09T01:41:23;4.23;;;3.97;;
434;SDS011;204;48.942;9.256;2022-07-09T01:43:48;6.20;;;4.43;;
434;SDS011;204;48.942;9.256;2022-07-09T01:46:14;4.03;;;3.83;;
434;SDS011;204;48.942;9.256;2022-07-09T01:48:39;4.87;;;4.43;;
434;SDS011;204;48.942;9.256;2022-07-09T01:51:07;4.28;;;4.00;;
434;SDS011;204;48.942;9.256;2022-07-09T01:53:34;5.13;;;4.55;;
434;SDS011;204;48.942;9.256;2022-07-09T01:56:07;3.85;;;3.65;;
434;SDS011;204;48.942;9.256;2022-07-09T01:58:34;4.10;;;3.90;;
434;SDS011;204;48.942;9.256;2022-07-09T02:01:00;5.22;;;4.93;;
434;SDS011;204;48.942;9.256;2022-07-09T02:03:26;6.32;;;4.75;;
434;SDS011;204;48.942;9.256;2022-07-09T02:05:52;4.57;;;4.20;;
434;SDS011;204;48.942;9.256;2022-07-09T02:08:18;4.43;;;4.00;;
434;SDS011;204;48.942;9.256;2022-07-09T02:10:43;4.60;;;4.30;;
434;SDS011;204;48.942;9.256;2022-07-09T02:13:10;5.40;;;4.05;;
434;SDS011;204;48.942;9.256;2022-07-09T02:15:37;4.20;;;3.92;;
434;SDS011;204;48.942;9.256;2022-07-09T02:18:03;4.60;;;4.30;;
434;SDS011;204;48.942;9.256;2022-07-09T02:20:29;5.25;;;3.95;;
434;SDS011;204;48.942;9.256;2022-07-09T02:22:55;4.90;;;4.60;;
434;SDS011;204;48.942;9.256;2022-07-09T02:25:21;9.30;;;4.17;;
434;SDS011;204;48.942;9.256;2022-07-09T02:27:46;6.23;;;4.83;;
434;SDS011;204;48.942;9.256;2022-07-09T02:30:12;7.30;;;5.10;;
434;SDS011;204;48.942;9.256;2022-07-09T02:32:38;4.80;;;4.50;;
434;SDS011;204;48.942;9.256;2022-07-09T02:35:04;6.35;;;4.00;;
434;SDS011;204;48.942;9.256;2022-07-09T02:37:30;7.82;;;5.63;;
434;SDS011;204;48.942;9.256;2022-07-09T02:39:57;5.00;;;4.70;;
434;SDS011;204;48.942;9.256;2022-07-09T02:42:23;9.77;;;4.83;;
434;SDS011;204;48.942;9.256;2022-07-09T02:44:48;5.03;;;4.73;;
434;SDS011;204;48.942;9.256;2022-07-09T02:47:14;5.07;;;4.77;;
434;SDS011;204;48.942;9.256;2022-07-09T02:49:40;4.77;;;4.47;;
434;SDS011;204;48.942;9.256;2022-07-09T02:52:05;4.63;;;4.30;;
434;SDS011;204;48.942;9.256;2022-07-09T02:54:31;5.72;;;4.47;;
434;SDS011;204;48.942;9.256;2022-07-09T02:56:59;5.65;;;4.78;;
434;SDS011;204;48.942;9.256;2022-07-09T02:59:25;5.18;;;4.30;;
434;SDS011;204;48.942;9.256;2022-07-09T03:01:51;4.60;;;4.30;;
434;SDS011;204;48.942;9.256;2022-07-09T03:04:16;5.40;;;4.37;;
434;SDS011;204;48.942;9.256;2022-07-09T03:06:42;5.80;;;5.07;;
434;SDS011;204;48.942;9.256;2022-07-09T03:09:08;6.10;;;4.93;;
434;SDS011;204;48.942;9.256;2022-07-09T03:11:34;6.70;;;4.90;;
434;SDS011;204;48.942;9.256;2022-07-09T03:14:00;4.60;;;4.30;;
434;SDS011;204;48.942;9.256;2022-07-09T03:16:25;5.10;;;4.80;;
434;SDS011;204;48.942;9.256;2022-07-09T03:18:51;7.07;;;5.07;;
434;SDS011;204;48.942;9.256;2022-07-09T03:21:17;6.70;;;5.10;;
434;SDS011;204;48.942;9.256;2022-07-09T03:23:42;7.03;;;5.10;;
434;SDS011;204;48.942;9.256;2022-07-09T03:26:08;7.10;;;4.63;;
434;SDS011;204;48.942;9.256;2022-07-09T03:28:33;7.40;;;5.13;;
434;SDS011;204;48.942;9.256;2022-07-09T03:30:59;5.17;;;4.87;;
434;SDS011;204;48.942;9.256;2022-07-09T03:33:25;6.28;;;4.70;;
434;SDS011;204;48.942;9.256;2022-07-09T03:35:53;5.20;;;4.90;;
434;SDS011;204;48.942;9.256;2022-07-09T03:38:20;5.07;;;4.03;;
434;SDS011;204;48.942;9.256;2022-07-09T03:40:46;4.43;;;4.13;;
434;SDS011;204;48.942;9.256;2022-07-09T03:43:11;4.73;;;4.43;;
434;SDS011;204;48.942;9.256;2022-07-09T03:45:37;6.07;;;4.40;;
434;SDS011;204;48.942;9.256;2022-07-09T03:48:03;4.47;;;4.10;;
434;SDS011;204;48.942;9.256;2022-07-09T03:50:29;7.20;;;4.75;;
434;SDS011;204;48.942;9.256;2022-07-09T03:52:54;4.80;;;4.50;;
434;SDS011;204;48.942;9.256;2022-07-09T03:55:20;6.97;;;4.83;;
434;SDS011;204;48.942;9.256;2022-07-09T03:57:45;7.17;;;4.70;;
434;SDS011;204;48.942;9.256;2022-07-09T04:00:11;4.63;;;4.37;;
434;SDS011;204;48.942;9.256;2022-07-09T04:02:37;4.82;;;4.55;;
434;SDS011;204;48.942;9.256;2022-07-09T04:05:02;5.03;;;4.23;;
434;SDS011;204;48.942;9.256;2022-07-09T04:07:28;4.03;;;3.70;;
434;SDS011;204;48.942;9.256;2022-07-09T04:09:54;7.00;;;4.60;;
434;SDS011;204;48.942;9.256;2022-07-09T04:12:20;5.03;;;4.70;;
434;SDS011;204;48.942;9.256;2022-07-09T04:14:46;6.13;;;4.25;;
434;SDS011;204;48.942;9.256;2022-07-09T04:17:12;3.90;;;3.70;;
434;SDS011;204;48.942;9.256;2022-07-09T04:19:37;4.10;;;3.90;;
434;SDS011;204;48.942;9.256;2022-07-09T04:22:03;5.07;;;4.07;;
434;SDS011;204;48.942;9.256;2022-07-09T04:24:29;3.88;;;3.67;;
434;SDS011;204;48.942;9.256;2022-07-09T04:26:55;4.97;;;4.67;;
434;SDS011;204;48.942;9.256;2022-07-09T04:29:21;4.57;;;4.28;;
434;SDS011;204;48.942;9.256;2022-07-09T04:31:47;5.43;;;4.67;;
434;SDS011;204;48.942;9.256;2022-07-09T04:34:12;5.83;;;3.97;;
434;SDS011;204;48.942;9.256;2022-07-09T04:36:38;6.20;;;3.90;;
434;SDS011;204;48.942;9.256;2022-07-09T04:39:04;3.77;;;3.57;;
434;SDS011;204;48.942;9.256;2022-07-09T04:41:30;4.65;;;3.80;;
434;SDS011;204;48.942;9.256;2022-07-09T04:43:56;4.90;;;4.10;;
434;SDS011;204;48.942;9.256;2022-07-09T04:46:21;8.13;;;3.97;;
434;SDS011;204;48.942;9.256;2022-07-09T04:48:47;5.13;;;4.33;;
434;SDS011;204;48.942;9.256;2022-07-09T04:51:13;3.90;;;3.50;;
434;SDS011;204;48.942;9.256;2022-07-09T04:53:39;6.03;;;4.07;;
434;SDS011;204;48.942;9.256;2022-07-09T04:56:05;4.17;;;3.20;;
434;SDS011;204;48.942;9.256;2022-07-09T04:58:32;6.35;;;3.85;;
434;SDS011;204;48.942;9.256;2022-07-09T05:00:58;4.80;;;3.25;;
434;SDS011;204;48.942;9.256;2022-07-09T05:03:23;5.93;;;3.83;;
434;SDS011;204;48.942;9.256;2022-07-09T05:05:49;4.53;;;3.43;;
434;SDS011;204;48.942;9.256;2022-07-09T05:08:16;3.70;;;3.50;;
434;SDS011;204;48.942;9.256;2022-07-09T05:10:42;6.40;;;3.78;;
434;SDS011;204;48.942;9.256;2022-07-09T05:13:07;5.10;;;3.70;;
434;SDS011;204;48.942;9.256;2022-07-09T05:15:33;5.53;;;3.30;;
434;SDS011;204;48.942;9.256;2022-07-09T05:17:59;4.50;;;3.30;;
434;SDS011;204;48.942;9.256;2022-07-09T05:20:24;5.53;;;3.40;;
434;SDS011;204;48.942;9.256;2022-07-09T05:22:51;3.70;;;3.50;;
434;SDS011;204;48.942;9.256;2022-07-09T05:25:16;9.83;;;4.30;;
434;SDS011;204;48.942;9.256;2022-07-09T05:27:43;3.00;;;2.80;;
434;SDS011;204;48.942;9.256;2022-07-09T05:30:10;7.60;;;4.00;;
434;SDS011;204;48.942;9.256;2022-07-09T05:32:39;3.50;;;3.03;;
434;SDS011;204;48.942;9.256;2022-07-09T05:35:04;3.73;;;3.37;;
434;SDS011;204;48.942;9.256;2022-07-09T05:37:30;5.37;;;3.40;;
434;SDS011;204;48.942;9.256;2022-07-09T05:39:56;3.20;;;3.00;;
434;SDS011;204;48.942;9.256;2022-07-09T05:42:23;3.43;;;3.23;;
434;SDS011;204;48.942;9.256;2022-07-09T05:44:49;3.47;;;3.27;;
434;SDS011;204;48.942;9.256;2022-07-09T05:47:15;7.30;;;4.10;;
434;SDS011;204;48.942;9.256;2022-07-09T05:49:40;5.13;;;4.33;;
434;SDS011;204;48.942;9.256;2022-07-09T05:52:06;6.07;;;3.50;;
434;SDS011;204;48.942;9.256;2022-07-09T05:54:32;4.30;;;3.77;;
434;SDS011;204;48.942;9.256;2022-07-09T05:56:58;5.20;;;4.03;;
434;SDS011;204;48.942;9.256;2022-07-09T05:59:23;7.40;;;4.20;;
434;SDS011;204;48.942;9.256;2022-07-09T06:01:49;7.63;;;4.27;;
434;SDS011;204;48.942;9.256;2022-07-09T06:04:14;5.77;;;3.60;;
434;SDS011;204;48.942;9.256;2022-07-09T06:06:40;5.60;;;3.63;;
434;SDS011;204;48.942;9.256;2022-07-09T06:09:06;7.77;;;4.20;;
434;SDS011;204;48.942;9.256;2022-07-09T06:11:31;3.57;;;3.40;;
434;SDS011;204;48.942;9.256;2022-07-09T06:13:58;4.57;;;3.63;;
434;SDS011;204;48.942;9.256;2022-07-09T06:16:23;4.03;;;3.30;;
434;SDS011;204;48.942;9.256;2022-07-09T06:18:49;5.30;;;4.00;;
434;SDS011;204;48.942;9.256;2022-07-09T06:21:14;3.70;;;3.47;;
434;SDS011;204;48.942;9.256;2022-07-09T06:23:40;9.70;;;3.90;;
434;SDS011;204;48.942;9.256;2022-07-09T06:26:06;3.90;;;3.60;;
434;SDS011;204;48.942;9.256;2022-07-09T06:28:31;4.83;;;3.80;;
434;SDS011;204;48.942;9.256;2022-07-09T06:31:00;4.23;;;2.77;;
434;SDS011;204;48.942;9.256;2022-07-09T06:33:25;2.93;;;2.73;;
434;SDS011;204;48.942;9.256;2022-07-09T06:35:51;5.70;;;3.20;;
434;SDS011;204;48.942;9.256;2022-07-09T06:38:16;5.57;;;3.87;;
434;SDS011;204;48.942;9.256;2022-07-09T06:40:42;4.90;;;3.13;;
434;SDS011;204;48.942;9.256;2022-07-09T06:43:07;4.07;;;2.60;;
434;SDS011;204;48.942;9.256;2022-07-09T06:45:37;5.10;;;2.70;;
434;SDS011;204;48.942;9.256;2022-07-09T06:48:03;5.20;;;3.27;;
434;SDS011;204;48.942;9.256;2022-07-09T06:50:29;2.50;;;2.30;;
434;SDS011;204;48.942;9.256;2022-07-09T06:52:54;3.20;;;2.90;;
434;SDS011;204;48.942;9.256;2022-07-09T06:55:20;7.50;;;3.33;;
434;SDS011;204;48.942;9.256;2022-07-09T06:57:46;6.63;;;3.50;;
434;SDS011;204;48.942;9.256;2022-07-09T07:00:12;6.37;;;3.60;;
434;SDS011;204;48.942;9.256;2022-07-09T07:02:38;4.73;;;3.70;;
434;SDS011;204;48.942;9.256;2022-07-09T07:05:04;7.47;;;3.23;;
434;SDS011;204;48.942;9.256;2022-07-09T07:07:30;9.97;;;2.70;;
434;SDS011;204;48.942;9.256;2022-07-09T07:09:56;2.90;;;2.70;;
434;SDS011;204;48.942;9.256;2022-07-09T07:12:22;4.50;;;2.87;;
434;SDS011;204;48.942;9.256;2022-07-09T07:14:48;3.70;;;2.47;;
434;SDS011;204;48.942;9.256;2022-07-09T07:17:13;3.90;;;2.70;;
434;SDS011;204;48.942;9.256;2022-07-09T07:19:39;5.43;;;2.47;;
434;SDS011;204;48.942;9.256;2022-07-09T07:22:05;3.37;;;2.50;;
434;SDS011;204;48.942;9.256;2022-07-09T07:24:30;5.20;;;2.40;;
434;SDS011;204;48.942;9.256;2022-07-09T07:26:56;4.83;;;2.50;;
434;SDS011;204;48.942;9.256;2022-07-09T07:29:22;3.07;;;2.40;;
434;SDS011;204;48.942;9.256;2022-07-09T07:31:48;2.93;;;2.27;;
434;SDS011;204;48.942;9.256;2022-07-09T07:34:14;6.20;;;3.87;;
434;SDS011;204;48.942;9.256;2022-07-09T07:36:40;4.27;;;2.43;;
434;SDS011;204;48.942;9.256;2022-07-09T07:39:06;4.57;;;2.57;;
434;SDS011;204;48.942;9.256;2022-07-09T07:41:32;5.93;;;3.07;;
434;SDS011;204;48.942;9.256;2022-07-09T07:43:57;6.67;;;3.53;;
434;SDS011;204;48.942;9.256;2022-07-09T07:46:23;4.03;;;2.73;;
434;SDS011;204;48.942;9.256;2022-07-09T07:48:49;4.00;;;3.07;;
434;SDS011;204;48.942;9.256;2022-07-09T07:51:15;5.43;;;2.80;;
434;SDS011;204;48.942;9.256;2022-07-09T07:53:41;6.33;;;2.63;;
434;SDS011;204;48.942;9.256;2022-07-09T07:56:07;3.47;;;2.70;;
434;SDS011;204;48.942;9.256;2022-07-09T07:58:33;5.17;;;2.30;;
434;SDS011;204;48.942;9.256;2022-07-09T08:01:00;3.83;;;3.47;;
434;SDS011;204;48.942;9.256;2022-07-09T08:03:26;5.53;;;2.80;;
434;SDS011;204;48.942;9.256;2022-07-09T08:05:51;3.50;;;2.67;;
434;SDS011;204;48.942;9.256;2022-07-09T08:08:17;4.43;;;2.73;;
434;SDS011;204;48.942;9.256;2022-07-09T08:10:43;2.60;;;2.47;;
434;SDS011;204;48.942;9.256;2022-07-09T08:13:10;9.40;;;3.47;;
434;SDS011;204;48.942;9.256;2022-07-09T08:15:37;7.30;;;3.17;;
434;SDS011;204;48.942;9.256;2022-07-09T08:18:03;3.53;;;2.50;;
434;SDS011;204;48.942;9.256;2022-07-09T08:20:29;5.70;;;3.23;;
434;SDS011;204;48.942;9.256;2022-07-09T08:22:55;4.93;;;2.33;;
434;SDS011;204;48.942;9.256;2022-07-09T08:25:20;10.23;;;2.97;;
434;SDS011;204;48.942;9.256;2022-07-09T08:27:46;3.57;;;2.90;;
434;SDS011;204;48.942;9.256;2022-07-09T08:30:14;3.03;;;2.17;;
434;SDS011;204;48.942;9.256;2022-07-09T08:32:40;4.03;;;2.20;;
434;SDS011;204;48.942;9.256;2022-07-09T08:35:06;4.70;;;2.33;;
434;SDS011;204;48.942;9.256;2022-07-09T08:37:32;4.10;;;2.70;;
434;SDS011;204;48.942;9.256;2022-07-09T08:39:57;3.23;;;2.07;;
434;SDS011;204;48.942;9.256;2022-07-09T08:42:24;4.03;;;1.90;;
434;SDS011;204;48.942;9.256;2022-07-09T08:44:50;5.53;;;2.07;;
434;SDS011;204;48.942;9.256;2022-07-09T08:47:19;7.03;;;5.83;;
434;SDS011;204;48.942;9.256;2022-07-09T08:49:45;4.63;;;2.20;;
434;SDS011;204;48.942;9.256;2022-07-09T08:52:12;6.47;;;2.70;;
434;SDS011;204;48.942;9.256;2022-07-09T08:54:39;5.07;;;2.63;;
434;SDS011;204;48.942;9.256;2022-07-09T08:57:07;4.07;;;2.93;;
434;SDS011;204;48.942;9.256;2022-07-09T08:59:33;3.53;;;2.20;;
434;SDS011;204;48.942;9.256;2022-07-09T09:02:03;5.70;;;2.87;;
434;SDS011;204;48.942;9.256;2022-07-09T09:04:29;2.53;;;1.20;;
434;SDS011;204;48.942;9.256;2022-07-09T09:06:55;2.20;;;1.77;;
434;SDS011;204;48.942;9.256;2022-07-09T09:09:21;2.80;;;1.80;;
434;SDS011;204;48.942;9.256;2022-07-09T09:11:49;2.83;;;1.53;;
434;SDS011;204;48.942;9.256;2022-07-09T09:14:21;4.43;;;1.80;;
434;SDS011;204;48.942;9.256;2022-07-09T09:16:47;2.67;;;1.87;;
434;SDS011;204;48.942;9.256;2022-07-09T09:19:14;4.20;;;1.60;;
434;SDS011;204;48.942;9.256;2022-07-09T09:21:39;2.20;;;1.60;;
434;SDS011;204;48.942;9.256;2022-07-09T09:24:05;1.73;;;1.37;;
434;SDS011;204;48.942;9.256;2022-07-09T09:26:31;3.27;;;2.00;;
434;SDS011;204;48.942;9.256;2022-07-09T09:29:01;2.10;;;1.47;;
434;SDS011;204;48.942;9.256;2022-07-09T09:31:30;3.83;;;2.23;;
434;SDS011;204;48.942;9.256;2022-07-09T09:34:09;1.90;;;1.33;;
434;SDS011;204;48.942;9.256;2022-07-09T09:36:39;3.43;;;1.27;;
434;SDS011;204;48.942;9.256;2022-07-09T09:41:37;3.20;;;1.47;;
434;SDS011;204;48.942;9.256;2022-07-09T09:44:07;3.50;;;1.57;;
434;SDS011;204;48.942;9.256;2022-07-09T09:46:35;1.63;;;1.10;;
434;SDS011;204;48.942;9.256;2022-07-09T09:49:03;2.60;;;1.20;;
434;SDS011;204;48.942;9.256;2022-07-09T09:51:36;2.50;;;1.40;;
434;SDS011;204;48.942;9.256;2022-07-09T09:54:21;2.20;;;1.50;;
434;SDS011;204;48.942;9.256;2022-07-09T09:56:47;1.37;;;1.27;;
434;SDS011;204;48.942;9.256;2022-07-09T09:59:14;2.23;;;1.60;;
434;SDS011;204;48.942;9.256;2022-07-09T10:01:42;1.37;;;1.00;;
434;SDS011;204;48.942;9.256;2022-07-09T10:04:09;4.30;;;1.43;;
434;SDS011;204;48.942;9.256;2022-07-09T10:06:35;1.77;;;1.23;;
434;SDS011;204;48.942;9.256;2022-07-09T10:09:05;2.87;;;1.60;;
434;SDS011;204;48.942;9.256;2022-07-09T10:11:42;4.23;;;2.00;;
434;SDS011;204;48.942;9.256;2022-07-09T10:14:08;1.60;;;1.30;;
434;SDS011;204;48.942;9.256;2022-07-09T10:16:53;3.40;;;1.50;;
434;SDS011;204;48.942;9.256;2022-07-09T10:19:29;2.33;;;1.50;;
434;SDS011;204;48.942;9.256;2022-07-09T10:21:58;5.73;;;3.23;;
434;SDS011;204;48.942;9.256;2022-07-09T10:27:16;1.60;;;1.20;;
434;SDS011;204;48.942;9.256;2022-07-09T10:29:52;3.67;;;1.63;;
434;SDS011;204;48.942;9.256;2022-07-09T10:32:28;2.00;;;1.30;;
434;SDS011;204;48.942;9.256;2022-07-09T10:42:40;2.37;;;1.77;;
434;SDS011;204;48.942;9.256;2022-07-09T10:45:28;2.30;;;1.20;;
434;SDS011;204;48.942;9.256;2022-07-09T10:47:57;2.43;;;1.00;;
434;SDS011;204;48.942;9.256;2022-07-09T10:50:25;2.10;;;1.20;;
434;SDS011;204;48.942;9.256;2022-07-09T10:52:52;2.23;;;1.33;;
434;SDS011;204;48.942;9.256;2022-07-09T10:55:19;2.03;;;1.20;;
434;SDS011;204;48.942;9.256;2022-07-09T10:57:45;3.23;;;1.93;;
434;SDS011;204;48.942;9.256;2022-07-09T11:00:15;2.17;;;1.60;;
434;SDS011;204;48.942;9.256;2022-07-09T11:05:16;1.23;;;1.00;;
434;SDS011;204;48.942;9.256;2022-07-09T11:07:42;1.57;;;1.20;;
434;SDS011;204;48.942;9.256;2022-07-09T11:10:08;1.50;;;1.13;;
434;SDS011;204;48.942;9.256;2022-07-09T11:12:48;2.20;;;1.63;;
434;SDS011;204;48.942;9.256;2022-07-09T11:15:17;3.30;;;1.33;;
434;SDS011;204;48.942;9.256;2022-07-09T11:17:53;5.37;;;1.77;;
434;SDS011;204;48.942;9.256;2022-07-09T11:20:22;3.87;;;1.60;;
434;SDS011;204;48.942;9.256;2022-07-09T11:22:48;2.47;;;1.50;;
434;SDS011;204;48.942;9.256;2022-07-09T11:25:14;1.63;;;1.30;;
434;SDS011;204;48.942;9.256;2022-07-09T11:27:41;2.77;;;1.73;;
434;SDS011;204;48.942;9.256;2022-07-09T11:30:11;2.93;;;2.67;;
434;SDS011;204;48.942;9.256;2022-07-09T11:32:37;3.63;;;1.87;;
434;SDS011;204;48.942;9.256;2022-07-09T11:35:03;1.87;;;1.20;;
434;SDS011;204;48.942;9.256;2022-07-09T11:37:29;4.90;;;1.80;;
434;SDS011;204;48.942;9.256;2022-07-09T11:39:55;2.87;;;1.30;;
434;SDS011;204;48.942;9.256;2022-07-09T11:42:20;2.03;;;1.77;;
434;SDS011;204;48.942;9.256;2022-07-09T11:44:54;1.63;;;1.53;;
434;SDS011;204;48.942;9.256;2022-07-09T11:47:37;2.83;;;1.40;;
434;SDS011;204;48.942;9.256;2022-07-09T11:52:32;1.57;;;1.20;;
434;SDS011;204;48.942;9.256;2022-07-09T11:57:29;0.90;;;0.80;;
434;SDS011;204;48.942;9.256;2022-07-09T11:59:56;1.63;;;1.33;;
434;SDS011;204;48.942;9.256;2022-07-09T12:02:22;2.63;;;1.27;;
434;SDS011;204;48.942;9.256;2022-07-09T12:04:51;3.00;;;1.70;;
434;SDS011;204;48.942;9.256;2022-07-09T12:07:17;3.60;;;1.30;;
434;SDS011;204;48.942;9.256;2022-07-09T12:09:42;1.93;;;1.10;;
434;SDS011;204;48.942;9.256;2022-07-09T12:12:08;1.23;;;0.80;;
434;SDS011;204;48.942;9.256;2022-07-09T12:14:33;2.70;;;1.20;;
434;SDS011;204;48.942;9.256;2022-07-09T12:16:59;3.60;;;1.07;;
434;SDS011;204;48.942;9.256;2022-07-09T12:19:25;1.97;;;1.50;;
434;SDS011;204;48.942;9.256;2022-07-09T12:21:50;1.90;;;0.97;;
434;SDS011;204;48.942;9.256;2022-07-09T12:24:16;3.43;;;2.63;;
434;SDS011;204;48.942;9.256;2022-07-09T12:26:42;2.07;;;1.70;;
434;SDS011;204;48.942;9.256;2022-07-09T12:29:07;1.10;;;0.83;;
434;SDS011;204;48.942;9.256;2022-07-09T12:31:33;1.27;;;1.20;;
434;SDS011;204;48.942;9.256;2022-07-09T12:34:02;2.93;;;1.00;;
434;SDS011;204;48.942;9.256;2022-07-09T12:36:29;1.23;;;1.00;;
434;SDS011;204;48.942;9.256;2022-07-09T12:38:55;1.50;;;1.37;;
434;SDS011;204;48.942;9.256;2022-07-09T12:41:21;2.80;;;1.20;;
434;SDS011;204;48.942;9.256;2022-07-09T12:43:46;1.10;;;1.00;;
434;SDS011;204;48.942;9.256;2022-07-09T12:46:12;1.00;;;0.90;;
434;SDS011;204;48.942;9.256;2022-07-09T12:48:38;1.33;;;1.20;;
434;SDS011;204;48.942;9.256;2022-07-09T12:51:03;2.47;;;1.20;;
434;SDS011;204;48.942;9.256;2022-07-09T12:53:29;1.47;;;1.27;;
434;SDS011;204;48.942;9.256;2022-07-09T12:55:54;1.47;;;1.03;;
434;SDS011;204;48.942;9.256;2022-07-09T12:58:20;2.50;;;1.10;;
434;SDS011;204;48.942;9.256;2022-07-09T13:00:46;1.33;;;1.00;;
434;SDS011;204;48.942;9.256;2022-07-09T13:03:11;1.00;;;0.97;;
434;SDS011;204;48.942;9.256;2022-07-09T13:05:37;1.07;;;1.00;;
434;SDS011;204;48.942;9.256;2022-07-09T13:08:03;3.13;;;0.93;;
434;SDS011;204;48.942;9.256;2022-07-09T13:10:29;2.87;;;1.20;;
434;SDS011;204;48.942;9.256;2022-07-09T13:12:55;1.53;;;1.10;;
434;SDS011;204;48.942;9.256;2022-07-09T13:15:20;1.03;;;0.87;;
434;SDS011;204;48.942;9.256;2022-07-09T13:17:47;1.10;;;1.00;;
434;SDS011;204;48.942;9.256;2022-07-09T13:20:13;4.00;;;1.40;;
434;SDS011;204;48.942;9.256;2022-07-09T13:22:39;1.97;;;1.20;;
434;SDS011;204;48.942;9.256;2022-07-09T13:25:04;1.30;;;1.20;;
434;SDS011;204;48.942;9.256;2022-07-09T13:27:31;1.20;;;1.10;;
434;SDS011;204;48.942;9.256;2022-07-09T13:29:56;1.37;;;1.30;;
434;SDS011;204;48.942;9.256;2022-07-09T13:32:22;1.60;;;1.20;;
434;SDS011;204;48.942;9.256;2022-07-09T13:34:51;1.40;;;1.20;;
434;SDS011;204;48.942;9.256;2022-07-09T13:37:17;4.10;;;1.80;;
434;SDS011;204;48.942;9.256;2022-07-09T13:39:43;2.70;;;1.30;;
434;SDS011;204;48.942;9.256;2022-07-09T13:42:08;3.80;;;1.90;;
434;SDS011;204;48.942;9.256;2022-07-09T13:44:34;3.07;;;1.30;;
434;SDS011;204;48.942;9.256;2022-07-09T13:46:59;2.70;;;1.63;;
434;SDS011;204;48.942;9.256;2022-07-09T13:49:25;3.97;;;1.90;;
434;SDS011;204;48.942;9.256;2022-07-09T13:51:51;5.27;;;1.50;;
434;SDS011;204;48.942;9.256;2022-07-09T13:54:17;1.40;;;1.30;;
434;SDS011;204;48.942;9.256;2022-07-09T13:56:42;1.70;;;1.33;;
434;SDS011;204;48.942;9.256;2022-07-09T13:59:08;4.97;;;2.27;;
434;SDS011;204;48.942;9.256;2022-07-09T14:01:34;1.67;;;1.57;;
434;SDS011;204;48.942;9.256;2022-07-09T14:03:59;4.43;;;2.23;;
434;SDS011;204;48.942;9.256;2022-07-09T14:06:25;1.30;;;1.30;;
434;SDS011;204;48.942;9.256;2022-07-09T14:08:50;5.03;;;4.17;;
434;SDS011;204;48.942;9.256;2022-07-09T14:11:16;2.03;;;1.97;;
434;SDS011;204;48.942;9.256;2022-07-09T14:13:42;2.60;;;2.40;;
434;SDS011;204;48.942;9.256;2022-07-09T14:16:08;1.97;;;1.87;;
434;SDS011;204;48.942;9.256;2022-07-09T14:18:34;4.53;;;1.90;;
434;SDS011;204;48.942;9.256;2022-07-09T14:21:00;1.67;;;1.60;;
434;SDS011;204;48.942;9.256;2022-07-09T14:23:25;1.80;;;1.70;;
434;SDS011;204;48.942;9.256;2022-07-09T14:25:51;4.93;;;2.20;;
434;SDS011;204;48.942;9.256;2022-07-09T14:28:17;2.60;;;1.97;;
434;SDS011;204;48.942;9.256;2022-07-09T14:30:42;1.70;;;1.60;;
434;SDS011;204;48.942;9.256;2022-07-09T14:33:08;1.83;;;1.50;;
434;SDS011;204;48.942;9.256;2022-07-09T14:35:33;4.93;;;1.97;;
434;SDS011;204;48.942;9.256;2022-07-09T14:37:59;3.50;;;1.33;;
434;SDS011;204;48.942;9.256;2022-07-09T14:40:25;3.20;;;1.70;;
434;SDS011;204;48.942;9.256;2022-07-09T14:42:51;2.30;;;1.80;;
434;SDS011;204;48.942;9.256;2022-07-09T14:45:16;3.00;;;2.00;;
434;SDS011;204;48.942;9.256;2022-07-09T14:47:43;1.80;;;1.70;;
434;SDS011;204;48.942;9.256;2022-07-09T14:50:08;1.97;;;1.70;;
434;SDS011;204;48.942;9.256;2022-07-09T14:52:34;4.20;;;3.07;;
434;SDS011;204;48.942;9.256;2022-07-09T14:55:00;5.47;;;5.20;;
434;SDS011;204;48.942;9.256;2022-07-09T14:57:26;3.37;;;1.97;;
434;SDS011;204;48.942;9.256;2022-07-09T14:59:52;2.20;;;2.00;;
434;SDS011;204;48.942;9.256;2022-07-09T15:02:17;1.83;;;1.67;;
434;SDS011;204;48.942;9.256;2022-07-09T15:04:43;2.60;;;2.00;;
434;SDS011;204;48.942;9.256;2022-07-09T15:07:09;3.00;;;1.60;;
434;SDS011;204;48.942;9.256;2022-07-09T15:09:34;1.97;;;1.87;;
434;SDS011;204;48.942;9.256;2022-07-09T15:12:00;1.70;;;1.60;;
434;SDS011;204;48.942;9.256;2022-07-09T15:14:25;2.00;;;1.70;;
434;SDS011;204;48.942;9.256;2022-07-09T15:16:51;2.80;;;2.17;;
434;SDS011;204;48.942;9.256;2022-07-09T15:19:16;1.97;;;1.90;;
434;SDS011;204;48.942;9.256;2022-07-09T15:21:42;2.53;;;2.30;;
434;SDS011;204;48.942;9.256;2022-07-09T15:24:08;3.93;;;2.23;;
434;SDS011;204;48.942;9.256;2022-07-09T15:26:34;1.73;;;1.50;;
434;SDS011;204;48.942;9.256;2022-07-09T15:28:59;2.00;;;1.60;;
434;SDS011;204;48.942;9.256;2022-07-09T15:31:25;2.07;;;1.70;;
434;SDS011;204;48.942;9.256;2022-07-09T15:33:51;2.30;;;2.10;;
434;SDS011;204;48.942;9.256;2022-07-09T15:36:16;2.97;;;2.83;;
434;SDS011;204;48.942;9.256;2022-07-09T15:38:42;3.03;;;2.87;;
434;SDS011;204;48.942;9.256;2022-07-09T15:41:08;2.23;;;2.03;;
434;SDS011;204;48.942;9.256;2022-07-09T15:43:38;3.00;;;2.03;;
434;SDS011;204;48.942;9.256;2022-07-09T15:46:05;3.00;;;2.30;;
434;SDS011;204;48.942;9.256;2022-07-09T15:48:31;2.90;;;2.10;;
434;SDS011;204;48.942;9.256;2022-07-09T15:50:56;1.80;;;1.70;;
434;SDS011;204;48.942;9.256;2022-07-09T15:53:22;9.50;;;2.90;;
434;SDS011;204;48.942;9.256;2022-07-09T15:55:48;2.47;;;2.00;;
434;SDS011;204;48.942;9.256;2022-07-09T15:58:13;2.50;;;2.17;;
434;SDS011;204;48.942;9.256;2022-07-09T16:00:39;2.37;;;1.87;;